Tuesday, May 31, 2016
21:55 UTC
  |  Log In   |  Register Free
Airport Search:

Livermore Municipal Airport
(KLVK)

FAA data valid effective May 26 2016 - Jul 21 2016 (unless otherwise noted).

 
 
 
 
 
 
 
 
 
 
 
 
 
 
Current Aviation Weather for KLVK

Weather Summary


The most recent METAR observation for LVK was updated at: 12:53 UTC
METAR for KLVK is not available. Closest METAR is for KHWD
KLVK  (most recent observation was updatred at 31:20 UTC)
312053Z COR 00000KT 10SM CLR 35/09 A2981 RMK AO2 SLP090 T03500094 58017

KHWD  (14.5 nm NE)   (most recent observation was updated at 31:20 UTC)
312054Z 29007KT 10SM CLR 28/12 A2984 RMK AO2 SLP113 T02830122 58014

KOAK  (19.1 nm SE)   (most recent observation was updated at 31:20 UTC)
312053Z 30011KT 10SM CLR 23/13 A2985 RMK AO2 SLP107 T02330128 58013

TAF for KLVK is not available.
KLVK
311728Z 3118/0118 VRB03KT P6SM SKC FM312200 28011KT P6SM SKC FM010400 29005KT P6SM SKC FM011100 VRB04KT P6SM SKC

KOAK  (19.1 nm SE)   (most recent observation was updatred at 31:17 UTC)
311728Z 3118/0124 27005KT P6SM SKC FM312100 30013KT P6SM SKC FM010400 30007KT P6SM SKC FM011200 28004KT P6SM FEW007 FM012100 30013KT P6SM FEW250


KSJC  (20.5 nm NE)   (most recent observation was updatred at 31:17 UTC)
311728Z 3118/0118 VRB03KT P6SM SKC FM311900 33007KT P6SM SKC FM312100 31011KT P6SM SKC FM010400 33006KT P6SM SKC FM011000 16004KT P6SM SKC
GlobalAir.com is loading additional information.
 Current Weather at LVK
91.0 F° (32.8 C°)

South winds at 5.8 mph
Pressure:
29.83 in
Humidity:
26%
Wind:
South at 5.8 mph
Dew Point:
52.0 F° (11.1 C°)
Visibility:
10.00 mi
LVK NOAA Radar




Find All Airport Services Find A Hotel Find A Rental Car Find A Golf Course Find A Restaurant $100 Hamburger



Airport Weather Forecast for KLVK

Translated METAR for KLVK (2053 UTC)
METAR:
KLVK 312053Z COR 00000KT 10SM CLR 35/09 A2981 RMK AO2 SLP090 T03500094 58017
Conditions at:
KLVK (Livermore Muni, CA) observed 2053 UTC 31 May 2016
Temperature:
35°C (95°F)
Dewpoint:
9°C (48.2°F) [RH = 20.4]
Pressure:
29.81 inches Hg (1009.5 mb)
pressure at sea level is 90 in Hg
Winds:
from the N (000 degrees) at 0 mph (0 knots: 0 m/s)
Visibility:
10 mile(s)
Ceiling:
at least 12,000 feet AGL
Clouds:
Clear below 12,000 feet AGL
Remarks:
site is automated and HAS a precipitation sensor

FBO's on the Field
FBO Company Facility Photos Services Transportation Aviation Fuel Prices: Prices include tax
Catering Weather Repair Courtesy Rental Type 100LL JetA JetA+ MOGAS 8087
 
Five Rivers Aviation

Currently rated 5 by 1 person
FS:Epic
Last Updated: Apr-28
Login to update fuel prices
SS:
Contact Five Rivers AviationMore FBO Information
 
Add another FBO Facility Photos Catering Weather Repair Courtesy Rental Type 100LL JetA JetA+ MOGAS 8087
Services Transportation Aviation Fuel Prices: Prices include tax


model-print
model-print
model-print
model-print